createdAt,value
2018-06-28T00:01:25.679Z,1.91
2018-06-28T00:07:20.735Z,1.94
2018-06-28T00:13:15.721Z,2.1
2018-06-28T00:19:10.677Z,1.97
2018-06-28T00:25:05.666Z,2.21
2018-06-28T00:31:00.673Z,2.46
2018-06-28T00:36:55.713Z,2.52
2018-06-28T00:42:50.689Z,2.23
2018-06-28T00:48:45.699Z,2.14
2018-06-28T00:54:40.718Z,2.28
2018-06-28T01:00:35.721Z,2.12
2018-06-28T01:06:30.695Z,2.15
2018-06-28T01:12:25.754Z,1.87
2018-06-28T01:18:20.698Z,1.92
2018-06-28T01:24:15.747Z,2.17
2018-06-28T01:30:11.783Z,2.32
2018-06-28T01:36:05.727Z,1.93
2018-06-28T01:42:00.723Z,2.03
2018-06-28T01:47:55.770Z,2.04
2018-06-28T01:53:50.777Z,1.8
2018-06-28T01:59:45.821Z,1.97
2018-06-28T02:05:40.727Z,1.81
2018-06-28T02:11:35.752Z,1.79
2018-06-28T02:17:30.771Z,1.51
2018-06-28T02:23:25.750Z,1.86
2018-06-28T02:29:20.775Z,2.01
2018-06-28T02:35:15.753Z,2.11
2018-06-28T02:41:10.806Z,1.99
2018-06-28T02:47:05.792Z,2.24
2018-06-28T02:53:00.830Z,1.79
2018-06-28T02:58:55.821Z,2.2
2018-06-28T03:04:50.822Z,2.37
2018-06-28T03:10:45.810Z,2.06
2018-06-28T03:16:40.774Z,2.19
2018-06-28T03:22:35.791Z,2.01
2018-06-28T03:28:30.797Z,2.3
2018-06-28T03:34:25.797Z,2.2
2018-06-28T03:40:20.817Z,1.79
2018-06-28T03:46:15.821Z,2.08
2018-06-28T03:52:10.821Z,2.05
2018-06-28T03:58:05.795Z,1.73
2018-06-28T04:04:00.832Z,1.8
2018-06-28T04:09:55.857Z,1.91
2018-06-28T04:15:50.833Z,1.86
2018-06-28T04:21:45.843Z,1.87
2018-06-28T04:27:40.881Z,2.2
2018-06-28T04:33:35.858Z,1.92
2018-06-28T04:39:30.848Z,1.93
2018-06-28T04:45:25.867Z,2.02
2018-06-28T04:51:20.869Z,1.84
2018-06-28T04:57:15.840Z,1.91
2018-06-28T05:03:10.863Z,1.81
2018-06-28T05:09:05.874Z,1.93
2018-06-28T05:15:00.834Z,3.76
2018-06-28T05:20:55.856Z,3.8
2018-06-28T05:26:50.907Z,4.48
2018-06-28T05:32:45.865Z,3.35
2018-06-28T05:38:40.870Z,3.06
2018-06-28T05:44:35.882Z,2.92
2018-06-28T05:50:30.871Z,4.13
2018-06-28T05:56:25.882Z,4.6
2018-06-28T06:02:20.886Z,4.31
2018-06-28T06:08:15.929Z,4.04
2018-06-28T06:14:10.933Z,3.06
2018-06-28T06:20:06.076Z,3.58
2018-06-28T06:26:00.879Z,3.99
2018-06-28T06:31:55.929Z,3.76
2018-06-28T06:37:50.954Z,3.99
2018-06-28T06:43:45.931Z,3.07
2018-06-28T06:49:40.927Z,2.61
2018-06-28T06:55:35.909Z,2.37
2018-06-28T07:01:30.933Z,2
2018-06-28T07:07:25.949Z,1.64
2018-06-28T07:13:20.948Z,1.65
2018-06-28T07:19:15.953Z,1.67
2018-06-28T07:25:11.407Z,1.36
2018-06-28T07:31:06.046Z,1.64
2018-06-28T07:37:00.964Z,1.42
2018-06-28T07:42:55.955Z,1.34
2018-06-28T07:48:50.991Z,1.35
2018-06-28T07:54:45.967Z,1.16
2018-06-28T08:00:41.046Z,0.88
2018-06-28T08:06:35.939Z,0.86
2018-06-28T08:12:30.984Z,0.84
2018-06-28T08:18:25.964Z,0.62
2018-06-28T08:24:21.038Z,0.66
2018-06-28T08:30:16.007Z,0.68
2018-06-28T08:36:11.046Z,0.46
2018-06-28T08:42:06.012Z,0.44
2018-06-28T08:48:00.995Z,0.47
2018-06-28T08:53:56.022Z,0.64
2018-06-28T08:59:51.050Z,1.08
2018-06-28T09:05:46.024Z,1.01
2018-06-28T09:11:41.020Z,0.77
2018-06-28T09:17:36.053Z,1.2
2018-06-28T09:23:31.029Z,0.91
2018-06-28T09:29:26.039Z,0.67
2018-06-28T09:35:21.039Z,0.76
2018-06-28T09:41:16.031Z,1.16
2018-06-28T09:47:11.063Z,1.42
2018-06-28T09:53:06.049Z,1.08
2018-06-28T09:59:01.128Z,1.67
2018-06-28T10:04:56.095Z,0.97
2018-06-28T10:10:51.133Z,1.09
2018-06-28T10:16:46.073Z,0.79
2018-06-28T10:22:41.158Z,1.25
2018-06-28T10:28:36.099Z,1.23
2018-06-28T10:34:31.107Z,1.13
2018-06-28T10:40:26.094Z,1.32
2018-06-28T10:46:21.114Z,1.39
2018-06-28T10:52:16.113Z,1.44
2018-06-28T10:58:11.103Z,1.3
2018-06-28T11:04:06.167Z,1.58
2018-06-28T11:10:01.093Z,1.39
2018-06-28T11:15:56.166Z,1.66
2018-06-28T11:21:51.151Z,1.04
2018-06-28T11:27:46.155Z,1.33
2018-06-28T11:33:41.122Z,1.2
2018-06-28T11:39:36.200Z,0.97
2018-06-28T11:45:31.183Z,1.39
2018-06-28T11:51:26.188Z,0.99
2018-06-28T11:57:21.153Z,1.35
2018-06-28T12:03:16.180Z,2.96
2018-06-28T12:09:11.213Z,1.01
2018-06-28T12:15:06.164Z,1.12
2018-06-28T12:21:01.319Z,1.07
2018-06-28T12:26:56.189Z,1.13
2018-06-28T12:32:51.246Z,1.03
2018-06-28T12:38:46.180Z,1.13
2018-06-28T12:44:41.239Z,0.96
2018-06-28T12:50:36.231Z,1.19
2018-06-28T12:56:31.182Z,0.89
2018-06-28T13:02:26.223Z,0.8
2018-06-28T13:08:21.236Z,0.88
2018-06-28T13:14:16.230Z,0.89
2018-06-28T13:20:11.994Z,0.9
2018-06-28T13:26:06.263Z,0.8
2018-06-28T13:32:01.245Z,1.11
2018-06-28T13:37:56.335Z,0.95
2018-06-28T13:43:51.276Z,0.85
2018-06-28T13:49:46.267Z,1
2018-06-28T13:55:41.256Z,1.09
2018-06-28T14:01:36.237Z,0.98
2018-06-28T14:07:31.243Z,1.23
2018-06-28T14:13:26.255Z,1.06
2018-06-28T14:19:21.246Z,1.29
2018-06-28T14:25:16.311Z,1.74
2018-06-28T14:31:11.288Z,1.89
2018-06-28T14:37:06.288Z,1.43
2018-06-28T14:43:01.313Z,1.7
2018-06-28T14:48:56.322Z,1.72
2018-06-28T14:54:51.291Z,1.64
2018-06-28T15:00:46.329Z,1.7
2018-06-28T15:06:41.290Z,1.77
2018-06-28T15:12:36.310Z,1.54
2018-06-28T15:18:31.305Z,1.62
2018-06-28T15:24:26.301Z,1.65
2018-06-28T15:30:21.305Z,1.54
2018-06-28T15:36:16.323Z,1.76
2018-06-28T15:42:11.321Z,1.53
2018-06-28T15:48:06.369Z,1.5
2018-06-28T15:54:01.336Z,1.6
2018-06-28T15:59:56.428Z,1.68
2018-06-28T16:05:51.397Z,1.43
2018-06-28T16:11:46.361Z,1.52
2018-06-28T16:17:41.357Z,1.57
2018-06-28T16:23:36.368Z,1.47
2018-06-28T16:29:31.385Z,1.48
2018-06-28T16:35:26.342Z,1.61
2018-06-28T16:41:21.374Z,1.64
2018-06-28T16:47:16.373Z,1.77
2018-06-28T16:53:11.358Z,1.84
2018-06-28T16:59:06.386Z,2.96
2018-06-28T17:05:01.412Z,2.88
2018-06-28T17:10:56.381Z,2.56
2018-06-28T17:16:51.380Z,1.74
2018-06-28T17:22:46.403Z,1.86
2018-06-28T17:28:41.402Z,1.82
2018-06-28T17:34:36.471Z,1.73
2018-06-28T17:40:31.419Z,1.76
2018-06-28T17:46:26.411Z,1.6
2018-06-28T17:52:21.420Z,1.76
2018-06-28T17:58:16.440Z,1.7
2018-06-28T18:04:11.463Z,1.35
2018-06-28T18:10:06.481Z,1.72
2018-06-28T18:16:01.478Z,1.77
2018-06-28T18:21:56.429Z,1.9
2018-06-28T18:27:51.477Z,1.89
2018-06-28T18:33:46.459Z,1.83
2018-06-28T18:39:41.501Z,1.75
2018-06-28T18:45:36.711Z,2.01
2018-06-28T18:51:31.590Z,2.13
2018-06-28T18:57:26.508Z,1.92
2018-06-28T19:03:21.526Z,1.87
2018-06-28T19:09:16.471Z,2
2018-06-28T19:15:11.462Z,2.1
2018-06-28T19:21:06.574Z,2
2018-06-28T19:27:01.522Z,1.94
2018-06-28T19:32:56.543Z,1.98
2018-06-28T19:38:51.548Z,2.26
2018-06-28T19:44:46.497Z,2.17
2018-06-28T19:50:41.518Z,2.46
2018-06-28T19:56:36.547Z,2.46
2018-06-28T20:02:31.492Z,2.32
2018-06-28T20:08:26.556Z,2.68
2018-06-28T20:14:21.579Z,2.42
2018-06-28T20:20:16.531Z,2.28
2018-06-28T20:26:11.542Z,2.42
2018-06-28T20:32:06.586Z,2.59
2018-06-28T20:38:01.565Z,2.6
2018-06-28T20:43:56.573Z,2.56
2018-06-28T20:49:51.629Z,2.37
2018-06-28T20:55:46.627Z,2.53
2018-06-28T21:01:41.607Z,2.43
2018-06-28T21:07:36.547Z,2.4
2018-06-28T21:13:31.544Z,2.23
2018-06-28T21:19:26.615Z,2.19
2018-06-28T21:25:21.630Z,2.25
2018-06-28T21:31:16.564Z,2.4
2018-06-28T21:37:11.617Z,2.44
2018-06-28T21:43:06.585Z,2.16
2018-06-28T21:49:01.675Z,2.35
2018-06-28T21:54:56.594Z,2.45
2018-06-28T22:00:51.586Z,2.72
2018-06-28T22:06:46.578Z,2.67
2018-06-28T22:12:41.684Z,2.21
2018-06-28T22:18:36.620Z,2.26
2018-06-28T22:24:31.607Z,2.37
2018-06-28T22:30:26.726Z,2.53
2018-06-28T22:36:21.644Z,2.2
2018-06-28T22:42:16.633Z,2.23
2018-06-28T22:48:11.638Z,2.01
2018-06-28T22:54:06.624Z,2.03
2018-06-28T23:00:01.635Z,2.04
2018-06-28T23:05:56.632Z,2.27
2018-06-28T23:11:51.701Z,2.6
2018-06-28T23:17:46.711Z,2.87
2018-06-28T23:23:41.657Z,3.24
2018-06-28T23:29:36.660Z,3.2
2018-06-28T23:35:31.646Z,3.19
2018-06-28T23:41:26.685Z,3.3
2018-06-28T23:47:21.677Z,2.94
2018-06-28T23:53:16.656Z,2.62
2018-06-28T23:59:11.737Z,2.62
